M I D A S
Marine Information and Data Acquisition System
Tripno 1089 of the Zeeleeuw from 2006-02-03 07:37:51 to 2006-02-03 16:04:08
Back to CruiseResearch ActivitiesStationsMapUnderway DataData graphs

EquipmentUnitsComment
TimeDGPSUTC
LatitudeDGPSDM.mWGS84
LongitudeDGPSDM.mWGS84
HeadingGyrodeg 
SOGDGPSknotsSpeed over ground
COGDGPSdegCourse over ground
DepthEcho soundermeters200 kHz
Missing or incorrect values are displayed as -999
Navigation data collected by the RV Zeeleeuw from 2006-02-03 07:25:10 to 2006-02-03 16:17:19
                                                                                    Next 1000 lines
Time Latitude Longitude Heading SOG COG Depth
2006-02-03 07:25:20 51°13.599 2°56.088 116.6 1.1 293 6.6
2006-02-03 07:25:25 51°13.6 2°56.085 117.2 1.5 292 6.8
2006-02-03 07:25:30 51°13.601 2°56.082 117.8 1.7 295 7.4
2006-02-03 07:25:35 51°13.602 2°56.078 118.4 1.9 297 -999
2006-02-03 07:25:41 51°13.604 2°56.073 119.1 2.2 296 -999
2006-02-03 07:25:46 51°13.605 2°56.069 119.6 2.4 297 -999
2006-02-03 07:25:51 51°13.607 2°56.063 119.7 2.7 297 -999
2006-02-03 07:25:56 51°13.608 2°56.058 119.8 2.9 298 -999
2006-02-03 07:26:01 51°13.61 2°56.052 120 3.1 297 -999
2006-02-03 07:26:06 51°13.612 2°56.045 120.1 3.3 298 -999
2006-02-03 07:26:11 51°13.614 2°56.039 120.2 3.5 298 -999
2006-02-03 07:26:16 51°13.617 2°56.032 120.2 3.6 298 -999
2006-02-03 07:26:21 51°13.619 2°56.024 120.1 3.8 298 -999
2006-02-03 07:26:26 51°13.622 2°56.016 119.6 4 298 -999
2006-02-03 07:26:31 51°13.624 2°56.008 119.4 4.1 297 -999
2006-02-03 07:26:36 51°13.627 2°56 119.1 4.3 297 -999
2006-02-03 07:26:41 51°13.629 2°55.991 119 4.4 297 -999
2006-02-03 07:26:46 51°13.632 2°55.982 118.7 4.5 296 -999
2006-02-03 07:26:51 51°13.635 2°55.973 118.5 4.7 296 -999
2006-02-03 07:26:56 51°13.638 2°55.963 118.4 4.8 296 -999
2006-02-03 07:27:01 51°13.641 2°55.953 118.2 4.9 295 -999
2006-02-03 07:27:06 51°13.644 2°55.944 118 5 295 -999
2006-02-03 07:27:11 51°13.647 2°55.933 117.7 5 295 -999
2006-02-03 07:27:16 51°13.65 2°55.923 117.5 5.1 295 -999
2006-02-03 07:27:21 51°13.653 2°55.913 117.5 5.2 295 -999
2006-02-03 07:27:26 51°13.656 2°55.902 117.5 5.2 294 -999
2006-02-03 07:27:31 51°13.659 2°55.892 117.5 5.3 295 -999
2006-02-03 07:27:36 51°13.661 2°55.881 117.6 5.3 295 -999
2006-02-03 07:27:41 51°13.665 2°55.871 117.8 5.4 295 -999
2006-02-03 07:27:46 51°13.667 2°55.86 118 5.4 295 -999
2006-02-03 07:27:51 51°13.67 2°55.85 117.7 5.3 295 -999
2006-02-03 07:27:56 51°13.673 2°55.839 117.2 5.3 294 -999
2006-02-03 07:28:01 51°13.676 2°55.829 116.4 5.2 294 -999
2006-02-03 07:28:06 51°13.679 2°55.818 115.5 5.2 293 -999
2006-02-03 07:28:11 51°13.682 2°55.808 114.6 5.2 293 -999
2006-02-03 07:28:16 51°13.684 2°55.797 113.7 5.2 292 -999
2006-02-03 07:28:21 51°13.687 2°55.787 112.5 5.1 292 -999
2006-02-03 07:28:26 51°13.689 2°55.777 111.5 4.8 290 -999
2006-02-03 07:28:31 51°13.691 2°55.767 110.1 4.6 289 -999
2006-02-03 07:28:36 51°13.693 2°55.758 108.3 4.4 288 -999
2006-02-03 07:28:41 51°13.695 2°55.749 106.5 4.2 287 -999
2006-02-03 07:28:46 51°13.696 2°55.741 105.1 4 286 9.2
2006-02-03 07:28:50 51°13.697 2°55.735 103.5 3.8 285 6.6
2006-02-03 07:28:56 51°13.698 2°55.726 102.2 3.4 284 4.8
2006-02-03 07:29:00 51°13.699 2°55.722 100.1 2.9 285 9.1
2006-02-03 07:29:05 51°13.699 2°55.717 97.4 2.3 279 9.1
2006-02-03 07:29:10 51°13.7 2°55.714 93.3 1.7 288 9.1
2006-02-03 07:29:15 51°13.701 2°55.713 88.9 0.6 308 9.2
2006-02-03 07:29:20 51°13.701 2°55.714 81.8 0.8 30 9.2
2006-02-03 07:29:25 51°13.703 2°55.716 75.4 1.1 48 9.3
2006-02-03 07:29:30 51°13.704 2°55.718 64.8 1.5 40 9.3
2006-02-03 07:29:35 51°13.706 2°55.721 58.8 1.8 42 4.9
2006-02-03 07:29:40 51°13.709 2°55.724 52.3 2.1 35 9.5
2006-02-03 07:29:46 51°13.712 2°55.727 45.1 2.3 30 4.9
2006-02-03 07:29:51 51°13.715 2°55.729 39.1 2.5 24 -999
2006-02-03 07:29:56 51°13.719 2°55.731 33.3 2.7 21 9.6
2006-02-03 07:30:00 51°13.722 2°55.732 27.7 2.7 16 9.6
2006-02-03 07:30:05 51°13.725 2°55.734 24.5 2.7 14 9.5
2006-02-03 07:30:10 51°13.728 2°55.734 22.2 2.5 11 9.4
2006-02-03 07:30:15 51°13.731 2°55.735 21 2.2 10 9.4
2006-02-03 07:30:20 51°13.734 2°55.735 19.2 1.8 5 10.3
2006-02-03 07:30:25 51°13.735 2°55.736 16.3 1.5 3 9.4
2006-02-03 07:30:31 51°13.737 2°55.736 13.5 1 354 9.3
2006-02-03 07:30:35 51°13.737 2°55.736 11.2 0.8 358 9.3
2006-02-03 07:30:40 51°13.738 2°55.735 9.4 0.5 344 -999
2006-02-03 07:30:45 51°13.738 2°55.735 8 0.2 323 -999
2006-02-03 07:30:51 51°13.738 2°55.734 6.9 0.4 212 -999
2006-02-03 07:30:56 51°13.736 2°55.733 6.4 1 193 9.3
2006-02-03 07:31:00 51°13.734 2°55.733 6 1.7 190 9.3
2006-02-03 07:31:06 51°13.73 2°55.732 5.4 2.2 187 -999
2006-02-03 07:31:11 51°13.727 2°55.731 4.8 2.2 188 -999
2006-02-03 07:31:16 51°13.725 2°55.731 4.2 2 187 -999
2006-02-03 07:31:21 51°13.723 2°55.73 3.7 1.7 188 -999
2006-02-03 07:31:26 51°13.721 2°55.73 2.7 1.2 189 -999
2006-02-03 07:31:31 51°13.72 2°55.73 1 0.7 198 -999
2006-02-03 07:31:36 51°13.72 2°55.729 358.7 0.2 257 -999
2006-02-03 07:31:41 51°13.721 2°55.728 354.1 0.6 324 -999
2006-02-03 07:31:46 51°13.723 2°55.727 349.7 1.1 336 -999
2006-02-03 07:31:51 51°13.725 2°55.726 345.4 1.7 335 -999
2006-02-03 07:31:56 51°13.729 2°55.724 343.1 2.4 334 -999
2006-02-03 07:32:01 51°13.733 2°55.721 341.1 3.2 335 -999
2006-02-03 07:32:06 51°13.738 2°55.717 339.6 3.9 334 -999
2006-02-03 07:32:11 51°13.744 2°55.712 338.4 4.6 333 -999
2006-02-03 07:32:16 51°13.751 2°55.706 336.7 5.2 331 -999
2006-02-03 07:32:21 51°13.758 2°55.7 335.9 5.7 331 10.2
2006-02-03 07:32:25 51°13.764 2°55.694 335.3 6.3 330 10.6
2006-02-03 07:32:31 51°13.774 2°55.686 335.4 6.6 331 -999
2006-02-03 07:32:35 51°13.78 2°55.68 335.6 7 330 -999
2006-02-03 07:32:41 51°13.791 2°55.67 335.5 7.3 331 -999
2006-02-03 07:32:46 51°13.8 2°55.662 335.7 7.6 331 -999
2006-02-03 07:32:51 51°13.81 2°55.654 336.6 7.9 332 -999
2006-02-03 07:32:56 51°13.821 2°55.646 336.9 8.1 333 -999
2006-02-03 07:33:01 51°13.831 2°55.638 337.5 8.3 333 -999
2006-02-03 07:33:06 51°13.841 2°55.63 338.7 8.3 335 -999
2006-02-03 07:33:11 51°13.851 2°55.623 339.6 8.1 335 9.2
2006-02-03 07:33:15 51°13.859 2°55.617 339.7 8 335 9.2
2006-02-03 07:33:20 51°13.869 2°55.61 339.8 7.9 336 9.2
2006-02-03 07:33:25 51°13.879 2°55.603 339.8 7.8 336 9.2
2006-02-03 07:33:30 51°13.888 2°55.596 339.8 7.6 336 9.2
2006-02-03 07:33:35 51°13.898 2°55.589 339.8 7.5 336 9.2
2006-02-03 07:33:40 51°13.907 2°55.582 339.9 7.4 335 9.3
2006-02-03 07:33:45 51°13.916 2°55.575 339.9 7.4 335 9.3
2006-02-03 07:33:50 51°13.925 2°55.569 339.7 7.3 335 9.3
2006-02-03 07:33:55 51°13.934 2°55.562 339.4 7.2 335 9.3
2006-02-03 07:34:00 51°13.943 2°55.555 339 7.1 334 9.2
2006-02-03 07:34:05 51°13.951 2°55.548 339 7 335 9.2
2006-02-03 07:34:10 51°13.96 2°55.542 339.6 6.8 335 9.3
2006-02-03 07:34:15 51°13.968 2°55.536 340 6.8 335 9.3
2006-02-03 07:34:20 51°13.977 2°55.53 340.4 6.7 336 9.3
2006-02-03 07:34:25 51°13.985 2°55.524 340.8 6.6 336 9.3
2006-02-03 07:34:31 51°13.995 2°55.517 340.9 6.5 336 9.3
2006-02-03 07:34:35 51°14.001 2°55.512 341 6.4 336 9.3
2006-02-03 07:34:40 51°14.01 2°55.507 341 6.4 336 9.3
2006-02-03 07:34:45 51°14.018 2°55.501 340.8 6.3 336 9.3
2006-02-03 07:34:50 51°14.026 2°55.496 340.7 6.3 337 9.3
2006-02-03 07:34:55 51°14.034 2°55.491 340.7 6.3 337 9.2
2006-02-03 07:35:00 51°14.042 2°55.485 340.4 6.2 336 9.3
2006-02-03 07:35:05 51°14.05 2°55.48 340.4 6.1 336 9.2
2006-02-03 07:35:10 51°14.058 2°55.474 340.4 6.1 336 9.3
2006-02-03 07:35:16 51°14.067 2°55.467 340.3 6 335 9.3
2006-02-03 07:35:20 51°14.073 2°55.463 340 6 335 -999
2006-02-03 07:35:26 51°14.082 2°55.456 339.7 6 335 -999
2006-02-03 07:35:31 51°14.089 2°55.45 339.6 5.9 335 -999
2006-02-03 07:35:36 51°14.097 2°55.445 339.4 5.9 334 9.3
2006-02-03 07:35:40 51°14.103 2°55.44 339.1 5.9 334 9.2
2006-02-03 07:35:45 51°14.11 2°55.434 338.8 5.9 334 9.3
2006-02-03 07:35:50 51°14.117 2°55.428 338.2 5.9 334 9.3
2006-02-03 07:35:56 51°14.125 2°55.421 337.5 5.9 332 -999
2006-02-03 07:36:01 51°14.133 2°55.415 337.3 5.8 333 -999
2006-02-03 07:36:06 51°14.139 2°55.409 337.2 5.8 332 -999
2006-02-03 07:36:11 51°14.147 2°55.403 336.7 5.8 332 9.3
2006-02-03 07:36:16 51°14.154 2°55.397 336 5.8 331 -999
2006-02-03 07:36:21 51°14.161 2°55.39 335.2 5.8 330 9.3
2006-02-03 07:36:26 51°14.169 2°55.383 334.3 5.8 329 9.3
2006-02-03 07:36:30 51°14.174 2°55.378 333.1 5.8 328 9.3
2006-02-03 07:36:35 51°14.181 2°55.371 332.1 5.7 327 9.3
2006-02-03 07:36:40 51°14.187 2°55.364 331 5.8 326 9.3
2006-02-03 07:36:45 51°14.194 2°55.356 329.6 5.8 324 9.3
2006-02-03 07:36:50 51°14.201 2°55.349 328.4 5.8 324 9.3
2006-02-03 07:36:55 51°14.207 2°55.341 327.7 5.8 323 9.3
2006-02-03 07:37:00 51°14.213 2°55.333 326.8 5.8 322 9.3
2006-02-03 07:37:05 51°14.219 2°55.325 325.6 5.9 321 9.3
2006-02-03 07:37:10 51°14.225 2°55.316 324.4 5.9 320 9.3
2006-02-03 07:37:15 51°14.231 2°55.307 323.6 6 318 9.3
2006-02-03 07:37:20 51°14.237 2°55.298 322.4 6 318 9.3
2006-02-03 07:37:25 51°14.243 2°55.289 321.2 6 317 9.3
2006-02-03 07:37:30 51°14.249 2°55.279 319.9 6.1 315 9.3
2006-02-03 07:37:35 51°14.255 2°55.269 319 6.1 314 9.3
2006-02-03 07:37:40 51°14.261 2°55.26 318.1 6.1 313 9.3
2006-02-03 07:37:45 51°14.267 2°55.25 317.3 6.1 313 9.3
2006-02-03 07:37:50 51°14.272 2°55.24 316.4 6.1 313 9.3
2006-02-03 07:37:55 51°14.278 2°55.229 315.7 6.2 311 9.3
2006-02-03 07:38:00 51°14.283 2°55.218 315 6.2 310 9.3
2006-02-03 07:38:05 51°14.289 2°55.208 314.6 6.2 310 9.3
2006-02-03 07:38:10 51°14.295 2°55.197 314.4 6.3 310 9.4
2006-02-03 07:38:15 51°14.3 2°55.187 314.4 6.3 310 9.4
2006-02-03 07:38:20 51°14.306 2°55.176 314.2 6.3 309 9.4
2006-02-03 07:38:25 51°14.311 2°55.165 314.1 6.3 309 9.4
2006-02-03 07:38:30 51°14.316 2°55.154 313.9 6.5 309 9.4
2006-02-03 07:38:35 51°14.322 2°55.142 313.9 6.5 309 9.4
2006-02-03 07:38:40 51°14.328 2°55.131 313.9 6.6 309 9.4
2006-02-03 07:38:44 51°14.332 2°55.121 314 6.8 309 9.5
2006-02-03 07:38:50 51°14.34 2°55.107 314.2 7 309 9.5
2006-02-03 07:38:55 51°14.347 2°55.094 314.3 7.1 309 9.5
2006-02-03 07:39:00 51°14.355 2°55.081 315.4 7.8 311 9.5
2006-02-03 07:39:06 51°14.365 2°55.065 317.9 8.5 314 9.6
2006-02-03 07:39:11 51°14.373 2°55.051 319.7 8.9 314 10
2006-02-03 07:39:15 51°14.381 2°55.04 321.6 9.2 317 9.7
2006-02-03 07:39:20 51°14.391 2°55.026 323.7 9.5 318 9.8
2006-02-03 07:39:25 51°14.402 2°55.012 326.4 9.7 320 9.8
2006-02-03 07:39:30 51°14.414 2°54.997 328 10.3 320 9.9
2006-02-03 07:39:35 51°14.425 2°54.983 329.5 10.4 321 9.9
2006-02-03 07:39:40 51°14.436 2°54.967 330.7 10.6 320 9.9
2006-02-03 07:39:45 51°14.448 2°54.952 332.1 10.8 321 9.9
2006-02-03 07:39:50 51°14.461 2°54.939 334.8 11.2 326 9.8
2006-02-03 07:39:55 51°14.474 2°54.925 337.4 11.3 327 9.7
2006-02-03 07:40:00 51°14.488 2°54.913 339.4 11.4 329 9.6
2006-02-03 07:40:05 51°14.502 2°54.901 341.3 11.5 331 9.5
2006-02-03 07:40:10 51°14.517 2°54.89 343.1 11.5 331 9.5
2006-02-03 07:40:15 51°14.533 2°54.88 344.7 11.8 336 9.3
2006-02-03 07:40:20 51°14.548 2°54.871 346.9 11.9 340 9.2
2006-02-03 07:40:25 51°14.564 2°54.862 348.2 12.1 339 9.1
2006-02-03 07:40:30 51°14.58 2°54.854 349 12.2 341 9.2
2006-02-03 07:40:35 51°14.596 2°54.845 350 12.3 342 9
2006-02-03 07:40:40 51°14.613 2°54.837 350.7 12.4 343 9.2
2006-02-03 07:40:45 51°14.629 2°54.829 351.1 12.4 343 9
2006-02-03 07:40:50 51°14.646 2°54.82 351.2 12.5 343 9.3
2006-02-03 07:40:55 51°14.662 2°54.812 350.8 12.6 342 8.9
2006-02-03 07:41:00 51°14.679 2°54.803 350.1 12.6 341 9
2006-02-03 07:41:05 51°14.695 2°54.793 349.1 12.6 340 8.8
2006-02-03 07:41:10 51°14.712 2°54.783 348.2 12.7 339 9
2006-02-03 07:41:15 51°14.728 2°54.772 346.6 12.7 338 8.8
2006-02-03 07:41:20 51°14.745 2°54.761 345.6 12.8 337 9
2006-02-03 07:41:25 51°14.761 2°54.75 345 12.8 337 8.9
2006-02-03 07:41:30 51°14.777 2°54.739 344.6 12.8 337 9.3
2006-02-03 07:41:36 51°14.797 2°54.725 344.5 12.8 337 9
2006-02-03 07:41:40 51°14.81 2°54.716 344.5 12.9 337 9.2
2006-02-03 07:41:45 51°14.826 2°54.705 344.5 12.9 337 9.1
2006-02-03 07:41:51 51°14.846 2°54.693 344.8 12.9 338 8.7
2006-02-03 07:41:56 51°14.863 2°54.683 345.8 12.9 339 8.8
2006-02-03 07:42:00 51°14.876 2°54.675 346.8 12.9 340 8.7
2006-02-03 07:42:05 51°14.893 2°54.667 347.8 12.8 342 8.7
2006-02-03 07:42:10 51°14.911 2°54.659 349 12.8 343 8.6
2006-02-03 07:42:15 51°14.928 2°54.652 349.5 12.9 344 8.6
2006-02-03 07:42:20 51°14.946 2°54.644 349.7 12.9 344 8.5
2006-02-03 07:42:25 51°14.963 2°54.636 349.8 12.9 344 8.8
2006-02-03 07:42:30 51°14.979 2°54.627 349.6 12.9 344 8.6
2006-02-03 07:42:35 51°14.996 2°54.618 348.8 12.9 342 8.5
2006-02-03 07:42:40 51°15.013 2°54.609 347.9 12.9 342 8.4
2006-02-03 07:42:45 51°15.03 2°54.599 346.7 12.9 340 8.3
2006-02-03 07:42:50 51°15.046 2°54.589 346.1 12.9 339 8.2
2006-02-03 07:42:55 51°15.063 2°54.579 345.4 12.9 339 8.1
2006-02-03 07:43:00 51°15.08 2°54.569 344.8 12.9 339 8
2006-02-03 07:43:05 51°15.096 2°54.558 344.5 12.8 339 8
2006-02-03 07:43:10 51°15.113 2°54.548 344.1 12.8 339 8
2006-02-03 07:43:15 51°15.129 2°54.537 344 12.8 339 8.1
2006-02-03 07:43:20 51°15.146 2°54.526 344 12.9 338 8.1
2006-02-03 07:43:25 51°15.162 2°54.516 343.6 12.9 338 8.1
2006-02-03 07:43:30 51°15.179 2°54.506 343.6 13 339 8.2
2006-02-03 07:43:35 51°15.197 2°54.497 344.7 13 341 8.2
2006-02-03 07:43:40 51°15.214 2°54.49 347.2 13.1 344 8.3
2006-02-03 07:43:45 51°15.232 2°54.484 350.2 13.1 348 8.4
2006-02-03 07:43:50 51°15.25 2°54.479 352.8 13.1 349 8.4
2006-02-03 07:43:55 51°15.268 2°54.474 354.8 13.2 351 8.5
2006-02-03 07:44:00 51°15.286 2°54.47 356.3 13.2 351 8.4
2006-02-03 07:44:05 51°15.304 2°54.467 357.3 13.2 352 8.5
2006-02-03 07:44:10 51°15.322 2°54.464 358.2 13.2 353 8.5
2006-02-03 07:44:15 51°15.34 2°54.46 358.6 13.2 354 8.6
2006-02-03 07:44:20 51°15.358 2°54.457 358.8 13.2 353 8.6
2006-02-03 07:44:25 51°15.376 2°54.453 358.8 13.2 353 8.6
2006-02-03 07:44:30 51°15.394 2°54.449 358.3 13.2 352 8.7
2006-02-03 07:44:35 51°15.413 2°54.444 357.9 13.1 351 8.8
2006-02-03 07:44:40 51°15.43 2°54.439 356.9 13.1 350 8.7
2006-02-03 07:44:45 51°15.448 2°54.432 356 13.1 349 8.9
2006-02-03 07:44:50 51°15.466 2°54.426 354.9 13.1 349 8.9
2006-02-03 07:44:55 51°15.483 2°54.419 353.9 13.1 347 9
2006-02-03 07:45:00 51°15.501 2°54.412 353.4 13.2 346 9.1
2006-02-03 07:45:05 51°15.519 2°54.406 353.1 13.2 346 9.1
2006-02-03 07:45:10 51°15.537 2°54.399 353.3 13.2 347 9.2
2006-02-03 07:45:15 51°15.555 2°54.393 353.6 13.2 348 9.3
2006-02-03 07:45:20 51°15.572 2°54.387 354.7 13.2 349 9.4
2006-02-03 07:45:25 51°15.59 2°54.383 355.4 13.1 350 9.5
2006-02-03 07:45:30 51°15.608 2°54.378 356.8 13.1 350 9.4
2006-02-03 07:45:35 51°15.626 2°54.374 357.9 13 351 9.5
2006-02-03 07:45:40 51°15.644 2°54.37 359.2 13 352 9.6
2006-02-03 07:45:46 51°15.665 2°54.366 -999 13 353 9.7
2006-02-03 07:45:50 51°15.68 2°54.363 0.7 13 353 9.8
2006-02-03 07:45:55 51°15.698 2°54.36 1.1 13 353 9.8
2006-02-03 07:46:00 51°15.715 2°54.356 1.4 13 354 9.9
2006-02-03 07:46:06 51°15.737 2°54.352 1.4 12.9 353 9.8
2006-02-03 07:46:10 51°15.751 2°54.349 1 12.9 352 9.9
2006-02-03 07:46:15 51°15.769 2°54.345 0.3 13 352 9.9
2006-02-03 07:46:20 51°15.787 2°54.34 359.3 12.9 351 10
2006-02-03 07:46:25 51°15.804 2°54.335 358.8 12.9 351 10.1
2006-02-03 07:46:30 51°15.822 2°54.331 358.4 12.9 350 10.2
2006-02-03 07:46:35 51°15.84 2°54.326 358.4 13 351 10.2
2006-02-03 07:46:40 51°15.857 2°54.323 358.8 13 351 10.2
2006-02-03 07:46:45 51°15.875 2°54.32 359.9 12.9 353 10.3
2006-02-03 07:46:51 51°15.896 2°54.316 1.5 12.8 354 10.3
2006-02-03 07:46:55 51°15.911 2°54.314 2.4 12.8 355 10.4
2006-02-03 07:47:00 51°15.928 2°54.312 3.1 12.7 355 10.5
2006-02-03 07:47:05 51°15.946 2°54.31 3.5 12.7 356 10.5
2006-02-03 07:47:10 51°15.963 2°54.308 3.8 12.5 355 10.5
2006-02-03 07:47:15 51°15.978 2°54.306 4 11.7 356 10.5
2006-02-03 07:47:20 51°15.993 2°54.304 4.1 11 356 10.6
2006-02-03 07:47:25 51°16.007 2°54.303 4.3 10.5 356 10.7
2006-02-03 07:47:30 51°16.02 2°54.302 4.7 9.5 356 10.8
2006-02-03 07:47:35 51°16.032 2°54.301 5.4 8.8 357 10.9
2006-02-03 07:47:40 51°16.044 2°54.3 6.5 8.4 358 10.9
2006-02-03 07:47:45 51°16.054 2°54.3 7.5 7.5 -999 11
2006-02-03 07:47:50 51°16.064 2°54.301 9.4 7 1 11
2006-02-03 07:47:55 51°16.073 2°54.302 11.6 6.7 3 11
2006-02-03 07:48:00 51°16.081 2°54.304 13.6 6.3 4 11
2006-02-03 07:48:06 51°16.09 2°54.305 15.8 6 6 11.1
2006-02-03 07:48:10 51°16.096 2°54.307 18.2 5.3 9 11.1
2006-02-03 07:48:15 51°16.102 2°54.309 19.8 5.1 9 11.1
2006-02-03 07:48:20 51°16.109 2°54.311 21.7 4.8 10 11
2006-02-03 07:48:26 51°16.116 2°54.313 23.4 4.7 12 11
2006-02-03 07:48:30 51°16.121 2°54.315 24.3 4.4 12 11.1
2006-02-03 07:48:35 51°16.126 2°54.316 23.9 4.3 11 11.1
2006-02-03 07:48:40 51°16.132 2°54.317 22.1 4.2 8 11.1
2006-02-03 07:48:45 51°16.138 2°54.318 20 4.2 7 11.1
2006-02-03 07:48:50 51°16.143 2°54.318 17.7 4.1 2 11.1
2006-02-03 07:48:55 51°16.149 2°54.318 14.4 4.2 359 11.1
2006-02-03 07:49:00 51°16.155 2°54.317 9.7 4.1 356 11.1
2006-02-03 07:49:05 51°16.16 2°54.315 6.5 4 353 11.1
2006-02-03 07:49:11 51°16.165 2°54.314 2.9 3.5 349 11.1
2006-02-03 07:49:15 51°16.169 2°54.312 0.3 3.2 345 11.1
2006-02-03 07:49:20 51°16.172 2°54.311 359.7 2.7 348 11.1
2006-02-03 07:49:25 51°16.175 2°54.309 1.7 2.3 345 11.1
2006-02-03 07:49:30 51°16.177 2°54.309 5.3 1.8 346 11.1
2006-02-03 07:49:35 51°16.179 2°54.308 9.4 1.4 341 11.1
2006-02-03 07:49:40 51°16.18 2°54.307 14.5 1.1 337 11.1
2006-02-03 07:49:44 51°16.181 2°54.306 17.4 0.9 326 11.2
2006-02-03 07:49:50 51°16.182 2°54.305 20.5 0.8 329 11.1
2006-02-03 07:49:55 51°16.182 2°54.304 23.2 0.7 330 11.2
2006-02-03 07:50:00 51°16.183 2°54.303 26.1 0.7 328 11.1
2006-02-03 07:50:05 51°16.184 2°54.302 27.7 0.7 321 11.2
2006-02-03 07:50:10 51°16.184 2°54.302 29.7 0.6 328 11.2
2006-02-03 07:50:15 51°16.185 2°54.301 31.4 0.6 325 11.1
2006-02-03 07:50:20 51°16.186 2°54.3 32.8 0.5 326 11.2
2006-02-03 07:50:26 51°16.186 2°54.3 34.2 0.6 329 11.1
2006-02-03 07:50:30 51°16.187 2°54.299 35.5 0.5 326 11.1
2006-02-03 07:50:35 51°16.188 2°54.299 36.7 0.6 325 11.1
2006-02-03 07:50:40 51°16.188 2°54.298 37.8 0.4 331 11.2
2006-02-03 07:50:45 51°16.189 2°54.297 38.9 0.5 325 11.1
2006-02-03 07:50:50 51°16.189 2°54.297 39.8 0.5 324 11.1
2006-02-03 07:50:55 51°16.19 2°54.296 40.6 0.5 323 11.2
2006-02-03 07:51:00 51°16.191 2°54.296 41.5 0.4 330 11.1
2006-02-03 07:51:05 51°16.191 2°54.295 42.2 0.5 323 11.1
2006-02-03 07:51:10 51°16.191 2°54.295 43 0.4 322 11.1
2006-02-03 07:51:15 51°16.192 2°54.294 43.7 0.5 321 11.1
2006-02-03 07:51:20 51°16.192 2°54.294 44.3 0.3 325 11.1
2006-02-03 07:51:25 51°16.192 2°54.293 44.8 0.5 319 11.1
2006-02-03 07:51:31 51°16.193 2°54.293 45.4 0.4 321 11.1
2006-02-03 07:51:35 51°16.193 2°54.292 45.8 0.4 318 11.1
2006-02-03 07:51:40 51°16.194 2°54.292 46.4 0.3 326 11.1
2006-02-03 07:51:45 51°16.194 2°54.291 46.9 0.5 324 11.1
2006-02-03 07:51:50 51°16.194 2°54.291 47.3 0.3 319 11.1
2006-02-03 07:51:55 51°16.194 2°54.29 47.8 0.4 315 11.1
2006-02-03 07:52:00 51°16.195 2°54.29 48.2 0.3 323 11.1
2006-02-03 07:52:05 51°16.195 2°54.29 48.7 0.3 317 11
2006-02-03 07:52:10 51°16.196 2°54.289 49.1 0.3 312 11.1
2006-02-03 07:52:15 51°16.196 2°54.288 49.3 0.4 309 11.1
2006-02-03 07:52:20 51°16.196 2°54.288 49.7 0.2 316 11.1
2006-02-03 07:52:25 51°16.196 2°54.288 50 0.5 313 11.1
2006-02-03 07:52:30 51°16.197 2°54.287 50.3 0.2 311 11.1
2006-02-03 07:52:35 51°16.197 2°54.287 50.7 0.4 316 11.1
2006-02-03 07:52:40 51°16.197 2°54.286 50.8 0.2 310 11.1
2006-02-03 07:52:45 51°16.197 2°54.286 51.2 0.4 312 11.1
2006-02-03 07:52:50 51°16.197 2°54.285 51.5 0.2 309 11.1
2006-02-03 07:52:55 51°16.198 2°54.285 51.7 0.4 311 11.1
2006-02-03 07:53:00 51°16.198 2°54.284 51.9 0.2 294 11.1
2006-02-03 07:53:06 51°16.198 2°54.284 52.2 0.3 306 11
2006-02-03 07:53:10 51°16.198 2°54.283 52.3 0.3 295 11
2006-02-03 07:53:15 51°16.198 2°54.283 52.7 0.3 304 11
2006-02-03 07:53:20 51°16.199 2°54.282 52.9 0.3 304 11.1
2006-02-03 07:53:25 51°16.199 2°54.282 53.1 0.3 302 11.1
2006-02-03 07:53:30 51°16.199 2°54.281 53.4 0.3 304 11.1
2006-02-03 07:53:35 51°16.199 2°54.281 53.7 0.3 300 11.1
2006-02-03 07:53:40 51°16.199 2°54.281 53.8 0.3 301 11.1
2006-02-03 07:53:45 51°16.199 2°54.28 54.2 0.3 299 11.1
2006-02-03 07:53:50 51°16.199 2°54.279 54.4 0.3 294 11
2006-02-03 07:53:55 51°16.2 2°54.279 54.7 0.2 288 11.1
2006-02-03 07:54:00 51°16.2 2°54.278 55 0.3 295 11.1
2006-02-03 07:54:05 51°16.2 2°54.278 55.1 0.2 290 11.1
2006-02-03 07:54:10 51°16.2 2°54.277 55.4 0.2 294 11
2006-02-03 07:54:15 51°16.2 2°54.276 55.8 0.2 281 11
2006-02-03 07:54:20 51°16.2 2°54.276 55.8 0.4 299 11
2006-02-03 07:54:25 51°16.2 2°54.275 56.3 0.2 269 11
2006-02-03 07:54:30 51°16.2 2°54.275 56.5 0.2 279 11.1
2006-02-03 07:54:35 51°16.201 2°54.274 56.8 0.2 280 11
2006-02-03 07:54:40 51°16.2 2°54.274 56.9 0.3 292 11
2006-02-03 07:54:45 51°16.2 2°54.273 57.2 0.2 271 11.1
2006-02-03 07:54:50 51°16.201 2°54.273 57.4 0.3 270 11
2006-02-03 07:54:55 51°16.201 2°54.272 57.8 0.3 276 11.1
2006-02-03 07:55:00 51°16.201 2°54.271 58 0.3 274 11
2006-02-03 07:55:05 51°16.201 2°54.27 58.2 0.3 284 11
2006-02-03 07:55:10 51°16.201 2°54.27 58.6 0.3 277 11
2006-02-03 07:55:15 51°16.201 2°54.27 58.7 0.3 278 11
2006-02-03 07:55:20 51°16.201 2°54.269 58.9 0.3 281 11
2006-02-03 07:55:26 51°16.201 2°54.268 59.1 0.3 275 11.1
2006-02-03 07:55:30 51°16.201 2°54.268 59.5 0.2 268 11
2006-02-03 07:55:35 51°16.201 2°54.267 59.5 0.3 277 11
2006-02-03 07:55:40 51°16.201 2°54.267 59.7 0.3 278 11
2006-02-03 07:55:45 51°16.201 2°54.267 60 0.3 276 11
2006-02-03 07:55:51 51°16.201 2°54.266 60.1 0.3 280 11
2006-02-03 07:55:55 51°16.201 2°54.265 60.3 0.3 274 11
2006-02-03 07:56:00 51°16.201 2°54.265 60.3 0.3 278 11
2006-02-03 07:56:05 51°16.201 2°54.264 60.5 0.2 266 11
2006-02-03 07:56:10 51°16.201 2°54.264 60.6 0.2 266 11
2006-02-03 07:56:15 51°16.201 2°54.263 60.8 0.3 277 11
2006-02-03 07:56:20 51°16.201 2°54.262 60.9 0.3 266 11
2006-02-03 07:56:25 51°16.201 2°54.261 61.1 0.3 273 11
2006-02-03 07:56:30 51°16.201 2°54.261 61.3 0.3 256 11
2006-02-03 07:56:35 51°16.201 2°54.261 61.5 0.3 274 11
2006-02-03 07:56:40 51°16.2 2°54.26 61.5 0.3 263 11
2006-02-03 07:56:44 51°16.2 2°54.259 61.6 0.3 274 11
2006-02-03 07:56:50 51°16.2 2°54.259 61.8 0.3 261 11
2006-02-03 07:56:55 51°16.2 2°54.258 61.9 0.3 264 11
2006-02-03 07:57:00 51°16.2 2°54.257 61.9 0.3 275 11
2006-02-03 07:57:06 51°16.2 2°54.256 62.1 0.3 271 11
2006-02-03 07:57:10 51°16.2 2°54.256 62.2 0.3 255 11
2006-02-03 07:57:15 51°16.2 2°54.255 62.3 0.4 277 11
2006-02-03 07:57:19 51°16.2 2°54.255 62.4 0.3 250 11.1
2006-02-03 07:57:25 51°16.2 2°54.254 62.5 0.4 275 11.1
2006-02-03 07:57:30 51°16.2 2°54.253 62.6 0.3 255 11.1
2006-02-03 07:57:35 51°16.199 2°54.253 62.7 0.4 276 11.1
2006-02-03 07:57:40 51°16.2 2°54.252 62.8 0.3 264 11.1
2006-02-03 07:57:44 51°16.199 2°54.252 63 0.3 258 11
2006-02-03 07:57:50 51°16.2 2°54.251 63.1 0.3 269 11
2006-02-03 07:57:55 51°16.2 2°54.25 63.1 0.3 255 11
2006-02-03 07:58:00 51°16.2 2°54.25 63.2 0.4 270 11
2006-02-03 07:58:04 51°16.2 2°54.249 63.4 0.3 257 11
2006-02-03 07:58:10 51°16.2 2°54.249 63.5 0.3 265 11
2006-02-03 07:58:15 51°16.2 2°54.248 63.6 0.3 260 11
2006-02-03 07:58:20 51°16.199 2°54.247 63.7 0.3 260 11
2006-02-03 07:58:25 51°16.199 2°54.246 63.8 0.3 260 11
2006-02-03 07:58:30 51°16.199 2°54.246 64 0.3 254 11
2006-02-03 07:58:35 51°16.199 2°54.245 64.2 0.3 263 11
2006-02-03 07:58:40 51°16.199 2°54.244 64.4 0.3 259 10.9
2006-02-03 07:58:44 51°16.199 2°54.244 64.5 0.4 259 11
2006-02-03 07:58:50 51°16.199 2°54.243 64.7 0.3 253 11
2006-02-03 07:58:55 51°16.199 2°54.242 64.9 0.4 256 11
2006-02-03 07:59:00 51°16.199 2°54.241 65.1 0.4 265 11
2006-02-03 07:59:05 51°16.199 2°54.241 65.3 0.4 254 11
2006-02-03 07:59:10 51°16.199 2°54.24 65.4 0.3 254 11
2006-02-03 07:59:15 51°16.198 2°54.239 65.6 0.3 248 11
2006-02-03 07:59:20 51°16.199 2°54.238 65.8 0.3 248 10.9
2006-02-03 07:59:24 51°16.198 2°54.238 66 0.4 249 10.9
2006-02-03 07:59:30 51°16.198 2°54.237 66.2 0.4 249 10.9
2006-02-03 07:59:35 51°16.198 2°54.236 66.4 0.3 246 10.9
2006-02-03 07:59:40 51°16.198 2°54.235 66.7 0.3 246 10.9
2006-02-03 07:59:44 51°16.198 2°54.235 66.8 0.3 250 10.9
2006-02-03 07:59:50 51°16.198 2°54.234 67.1 0.3 250 10.9
2006-02-03 07:59:55 51°16.198 2°54.233 67.3 0.3 251 10.9
2006-02-03 08:00:00 51°16.198 2°54.232 67.5 0.3 251 11
2006-02-03 08:00:04 51°16.198 2°54.232 67.8 0.4 251 11
2006-02-03 08:00:10 51°16.197 2°54.231 67.9 0.4 251 10.9
2006-02-03 08:00:15 51°16.197 2°54.23 68.3 0.4 252 10.9
2006-02-03 08:00:20 51°16.197 2°54.229 68.5 0.4 252 10.9
2006-02-03 08:00:24 51°16.197 2°54.229 68.8 0.4 250 10.9
2006-02-03 08:00:30 51°16.197 2°54.228 69.1 0.4 250 10.9
2006-02-03 08:00:35 51°16.197 2°54.227 69.3 0.4 255 11
2006-02-03 08:00:40 51°16.197 2°54.226 69.6 0.4 255 10.9
2006-02-03 08:00:44 51°16.196 2°54.225 69.9 0.4 257 10.9
2006-02-03 08:00:50 51°16.196 2°54.224 70.2 0.4 259 10.9
2006-02-03 08:00:55 51°16.196 2°54.224 70.4 0.4 252 10.9
2006-02-03 08:01:00 51°16.196 2°54.223 70.8 0.4 257 10.9
2006-02-03 08:01:04 51°16.196 2°54.222 71 0.4 250 10.9
2006-02-03 08:01:10 51°16.196 2°54.221 71.3 0.4 258 10.9
2006-02-03 08:01:15 51°16.196 2°54.22 71.5 0.4 259 10.9
2006-02-03 08:01:20 51°16.195 2°54.22 72 0.4 248 10.9
2006-02-03 08:01:24 51°16.195 2°54.219 72.3 0.4 253 10.9
2006-02-03 08:01:30 51°16.195 2°54.218 72.5 0.4 243 10.9
2006-02-03 08:01:35 51°16.195 2°54.217 72.9 0.4 262 10.9
2006-02-03 08:01:40 51°16.195 2°54.216 73.2 0.4 253 10.9
2006-02-03 08:01:44 51°16.194 2°54.216 73.5 0.4 252 11
2006-02-03 08:01:50 51°16.194 2°54.215 73.8 0.4 257 10.9
2006-02-03 08:01:55 51°16.194 2°54.214 74.2 0.4 251 10.9
2006-02-03 08:02:00 51°16.194 2°54.213 74.5 0.4 251 10.9
2006-02-03 08:02:04 51°16.194 2°54.212 74.7 0.4 254 10.9
2006-02-03 08:02:10 51°16.194 2°54.211 75.1 0.4 248 10.9
2006-02-03 08:02:15 51°16.193 2°54.21 75.4 0.4 254 10.9
2006-02-03 08:02:20 51°16.193 2°54.21 75.7 0.4 254 10.9
2006-02-03 08:02:24 51°16.193 2°54.209 76.1 0.4 258 10.9
2006-02-03 08:02:30 51°16.193 2°54.208 76.4 0.4 258 10.9
2006-02-03 08:02:35 51°16.192 2°54.207 76.7 0.4 250 10.9
2006-02-03 08:02:40 51°16.192 2°54.206 77 0.4 250 10.9
2006-02-03 08:02:44 51°16.192 2°54.205 77.6 0.4 256 10.9
2006-02-03 08:02:50 51°16.192 2°54.204 77.7 0.4 256 10.9
2006-02-03 08:02:55 51°16.192 2°54.204 78.1 0.4 257 10.9
2006-02-03 08:03:00 51°16.192 2°54.203 78.5 0.4 257 10.9
2006-02-03 08:03:04 51°16.192 2°54.202 79 0.5 252 10.9
2006-02-03 08:03:10 51°16.191 2°54.201 79.2 0.5 252 10.9
2006-02-03 08:03:15 51°16.191 2°54.2 79.6 0.5 258 10.9
2006-02-03 08:03:20 51°16.191 2°54.199 79.8 0.5 258 10.9
2006-02-03 08:03:24 51°16.191 2°54.198 80.2 0.5 263 10.9
2006-02-03 08:03:30 51°16.191 2°54.197 80.5 0.5 263 10.9
2006-02-03 08:03:35 51°16.191 2°54.196 80.9 0.4 257 10.9
2006-02-03 08:03:40 51°16.19 2°54.195 81.2 0.4 257 10.9
2006-02-03 08:03:44 51°16.19 2°54.195 81.6 0.5 252 10.9
2006-02-03 08:03:50 51°16.19 2°54.194 82 0.5 252 10.9
2006-02-03 08:03:55 51°16.189 2°54.193 82.2 0.5 255 10.9
2006-02-03 08:04:00 51°16.189 2°54.192 82.7 0.5 255 10.9
2006-02-03 08:04:04 51°16.189 2°54.191 83 0.5 251 10.9
2006-02-03 08:04:10 51°16.189 2°54.19 83.4 0.5 251 10.9
2006-02-03 08:04:15 51°16.188 2°54.189 83.7 0.5 252 10.9
2006-02-03 08:04:20 51°16.188 2°54.188 84.1 0.5 248 10.9
2006-02-03 08:04:24 51°16.188 2°54.187 84.5 0.5 255 10.9
2006-02-03 08:04:30 51°16.188 2°54.186 84.8 0.5 242 10.8
2006-02-03 08:04:35 51°16.188 2°54.185 85.1 0.5 251 10.9
2006-02-03 08:04:40 51°16.187 2°54.184 85.5 0.5 252 10.9
2006-02-03 08:04:44 51°16.187 2°54.183 85.8 0.5 250 10.8
2006-02-03 08:04:50 51°16.187 2°54.182 86.1 0.5 246 10.8
2006-02-03 08:04:55 51°16.186 2°54.181 86.4 0.5 248 10.8
2006-02-03 08:05:00 51°16.186 2°54.18 86.8 0.5 246 10.9
2006-02-03 08:05:04 51°16.186 2°54.179 87.1 0.5 251 10.9
2006-02-03 08:05:10 51°16.185 2°54.178 87.5 0.5 241 10.9
2006-02-03 08:05:15 51°16.185 2°54.177 87.8 0.5 251 10.9
2006-02-03 08:05:20 51°16.185 2°54.176 88.2 0.5 241 10.8
2006-02-03 08:05:25 51°16.185 2°54.175 88.7 0.5 249 10.8
2006-02-03 08:05:30 51°16.185 2°54.174 89 0.5 250 10.9
2006-02-03 08:05:35 51°16.184 2°54.173 89.4 0.5 246 10.8
2006-02-03 08:05:40 51°16.184 2°54.172 89.8 0.5 243 10.8
2006-02-03 08:05:44 51°16.184 2°54.172 90.2 0.5 249 10.8
2006-02-03 08:05:50 51°16.183 2°54.17 90.4 0.5 244 10.8
2006-02-03 08:05:55 51°16.183 2°54.169 90.9 0.5 250 10.8
2006-02-03 08:06:00 51°16.183 2°54.168 91.4 0.5 242 10.8
2006-02-03 08:06:05 51°16.182 2°54.167 91.8 0.5 247 10.8
2006-02-03 08:06:10 51°16.182 2°54.166 92.1 0.5 242 10.8
2006-02-03 08:06:15 51°16.182 2°54.165 92.7 0.5 249 10.8
2006-02-03 08:06:20 51°16.182 2°54.164 93 0.5 240 10.9
2006-02-03 08:06:24 51°16.181 2°54.163 93.4 0.5 251 10.9
2006-02-03 08:06:30 51°16.181 2°54.162 93.8 0.6 241 10.8
2006-02-03 08:06:35 51°16.181 2°54.161 94.3 0.6 241 10.8
2006-02-03 08:06:40 51°16.18 2°54.16 94.4 0.5 244 10.9
2006-02-03 08:06:44 51°16.18 2°54.159 95 0.5 249 10.8
2006-02-03 08:06:50 51°16.18 2°54.158 95.1 0.5 245 10.8
2006-02-03 08:06:55 51°16.179 2°54.157 95.5 0.5 254 10.8
2006-02-03 08:07:00 51°16.179 2°54.156 95.9 0.6 246 10.8
2006-02-03 08:07:05 51°16.179 2°54.155 96.1 0.6 249 10.8
2006-02-03 08:07:10 51°16.179 2°54.154 96.5 0.6 246 10.8
2006-02-03 08:07:15 51°16.178 2°54.153 96.8 0.5 257 10.8
2006-02-03 08:07:20 51°16.178 2°54.151 97.2 0.6 244 10.8
2006-02-03 08:07:24 51°16.178 2°54.15 97.3 0.6 249 10.8
2006-02-03 08:07:30 51°16.177 2°54.149 97.8 0.6 244 10.9
2006-02-03 08:07:35 51°16.177 2°54.148 98.1 0.5 251 10.8
2006-02-03 08:07:40 51°16.177 2°54.147 98.5 0.6 246 10.8
2006-02-03 08:07:44 51°16.177 2°54.146 98.7 0.6 247 10.8
2006-02-03 08:07:50 51°16.176 2°54.145 99.1 0.6 245 10.8
2006-02-03 08:07:55 51°16.176 2°54.144 99.4 0.5 251 10.8
2006-02-03 08:08:00 51°16.175 2°54.142 99.6 0.5 251 10.8
2006-02-03 08:08:04 51°16.175 2°54.141 100.1 0.6 249 10.8
2006-02-03 08:08:10 51°16.175 2°54.14 100.3 0.6 249 10.9
2006-02-03 08:08:15 51°16.174 2°54.139 100.5 0.6 246 10.8
2006-02-03 08:08:20 51°16.174 2°54.138 100.8 0.6 246 10.8
2006-02-03 08:08:24 51°16.174 2°54.137 101.3 0.6 246 10.8
2006-02-03 08:08:30 51°16.173 2°54.135 101.4 0.6 246 10.8
2006-02-03 08:08:35 51°16.173 2°54.134 101.7 0.6 249 10.8
2006-02-03 08:08:40 51°16.173 2°54.133 102 0.6 249 10.8
2006-02-03 08:08:44 51°16.172 2°54.132 102.3 0.6 244 10.8
2006-02-03 08:08:50 51°16.172 2°54.131 102.5 0.6 244 10.8
2006-02-03 08:08:55 51°16.172 2°54.13 102.9 0.6 246 10.8
2006-02-03 08:09:00 51°16.171 2°54.129 103 0.6 246 10.8
2006-02-03 08:09:04 51°16.171 2°54.128 103.4 0.6 243 10.8
2006-02-03 08:09:10 51°16.171 2°54.126 103.6 0.6 243 10.8
2006-02-03 08:09:15 51°16.17 2°54.125 103.9 0.6 242 10.8
2006-02-03 08:09:20 51°16.17 2°54.123 104.2 0.6 242 10.8
2006-02-03 08:09:24 51°16.169 2°54.123 104.6 0.7 238 10.8
2006-02-03 08:09:30 51°16.169 2°54.121 104.8 0.7 238 10.8
2006-02-03 08:09:35 51°16.169 2°54.12 105.2 0.6 242 10.8
2006-02-03 08:09:40 51°16.168 2°54.119 105.5 0.6 242 10.8
2006-02-03 08:09:44 51°16.168 2°54.118 105.9 0.5 231 10.8
2006-02-03 08:09:50 51°16.167 2°54.118 105.9 0.5 231 10.8
2006-02-03 08:09:55 51°16.167 2°54.119 104.5 0.3 141 10.8
2006-02-03 08:10:00 51°16.167 2°54.121 102.1 0.8 106 10.8
2006-02-03 08:10:05 51°16.166 2°54.124 98.2 1 98 10.8
2006-02-03 08:10:10 51°16.167 2°54.127 93.4 1.4 89 10.8
2006-02-03 08:10:15 51°16.167 2°54.131 86.4 1.7 82 10.8
2006-02-03 08:10:20 51°16.168 2°54.136 81.9 1.9 76 10.8
2006-02-03 08:10:24 51°16.169 2°54.139 76 2.2 64 10.8
2006-02-03 08:10:30 51°16.172 2°54.145 69.8 2.3 60 10.8
2006-02-03 08:10:35 51°16.175 2°54.149 63.5 2.8 48 10.7
2006-02-03 08:10:40 51°16.179 2°54.154 56.9 3.3 40 10.8
2006-02-03 08:10:44 51°16.183 2°54.157 47.6 3.4 35 10.8
2006-02-03 08:10:50 51°16.189 2°54.16 41.3 4 25 10.7
2006-02-03 08:10:55 51°16.196 2°54.161 33.1 4.4 11 10.7
2006-02-03 08:11:00 51°16.202 2°54.162 25.2 4.8 5 10.7
2006-02-03 08:11:04 51°16.208 2°54.161 15.9 5.1 356 10.7
2006-02-03 08:11:10 51°16.217 2°54.157 9.6 5.3 350 10.7
2006-02-03 08:11:15 51°16.224 2°54.153 1.9 5.6 340 10.7
2006-02-03 08:11:20 51°16.231 2°54.146 353.9 5.9 333 10.7
2006-02-03 08:11:24 51°16.237 2°54.139 345.7 6.1 325 10.7
2006-02-03 08:11:30 51°16.244 2°54.128 337.6 6.2 321 10.8
2006-02-03 08:11:35 51°16.25 2°54.117 329.5 6.5 312 10.8
2006-02-03 08:11:40 51°16.255 2°54.104 321.2 6.8 304 10.8
2006-02-03 08:11:45 51°16.26 2°54.09 313.9 7.1 300 10.8
2006-02-03 08:11:50 51°16.264 2°54.074 307.7 7.5 296 10.8
2006-02-03 08:11:55 51°16.269 2°54.058 304.7 7.5 296 10.8
2006-02-03 08:12:00 51°16.275 2°54.041 305.3 8.5 298 10.8
2006-02-03 08:12:05 51°16.282 2°54.024 307.7 9 302 10.8
2006-02-03 08:12:10 51°16.289 2°54.007 310.3 9.5 303 10.8
2006-02-03 08:12:15 51°16.298 2°53.99 313.4 9.6 305 10.8
2006-02-03 08:12:20 51°16.307 2°53.972 316.3 10.2 309 10.8
2006-02-03 08:12:25 51°16.317 2°53.955 318.6 10.5 311 10.9
2006-02-03 08:12:30 51°16.328 2°53.937 320.7 10.6 312 10.8
2006-02-03 08:12:35 51°16.339 2°53.919 322.1 11.3 314 10.8
2006-02-03 08:12:40 51°16.35 2°53.899 322.7 11.8 313 10.9
2006-02-03 08:12:45 51°16.362 2°53.879 322.5 12.1 313 10.8
2006-02-03 08:12:50 51°16.374 2°53.859 321.9 12.5 312 10.9
2006-02-03 08:12:55 51°16.385 2°53.837 320.9 12.5 312 10.8
2006-02-03 08:13:00 51°16.398 2°53.816 320.5 12.9 312 10.9
2006-02-03 08:13:05 51°16.41 2°53.795 321.1 12.9 312 10.9
2006-02-03 08:13:10 51°16.423 2°53.775 322 13.2 314 10.9
2006-02-03 08:13:15 51°16.436 2°53.754 323.3 13.2 315 10.9
2006-02-03 08:13:20 51°16.449 2°53.734 324.2 13.3 316 11
2006-02-03 08:13:25 51°16.463 2°53.714 324.8 13.4 317 10.9
2006-02-03 08:13:30 51°16.476 2°53.693 325.3 13.4 317 10.9
2006-02-03 08:13:35 51°16.49 2°53.673 325.4 13.4 317 10.9
2006-02-03 08:13:40 51°16.503 2°53.652 325.4 13.4 317 10.9
2006-02-03 08:13:44 51°16.514 2°53.636 325.2 13.5 316 11
2006-02-03 08:13:50 51°16.53 2°53.611 325 13.5 316 10.9
2006-02-03 08:13:55 51°16.544 2°53.591 324.7 13.5 316 10.9
2006-02-03 08:14:00 51°16.557 2°53.57 324.4 13.5 316 10.9
2006-02-03 08:14:04 51°16.568 2°53.553 323.8 13.5 315 10.9
2006-02-03 08:14:10 51°16.584 2°53.527 322.8 13.5 315 10.9
2006-02-03 08:14:15 51°16.597 2°53.506 322.2 13.5 314 10.9
2006-02-03 08:14:20 51°16.61 2°53.484 321.5 13.5 314 10.9
2006-02-03 08:14:24 51°16.62 2°53.466 321 13.5 313 10.9
2006-02-03 08:14:30 51°16.635 2°53.441 320.6 13.5 313 10.7
2006-02-03 08:14:35 51°16.648 2°53.419 320.4 13.5 313 10.7
2006-02-03 08:14:40 51°16.661 2°53.397 320.2 13.5 313 10.7
2006-02-03 08:14:44 51°16.671 2°53.38 320.7 13.5 313 10.6
2006-02-03 08:14:50 51°16.687 2°53.355 321.2 13.5 313 10.6
2006-02-03 08:14:55 51°16.7 2°53.333 321.7 13.4 315 10.6
2006-02-03 08:15:00 51°16.713 2°53.312 322.4 13.4 315 10.5
2006-02-03 08:15:04 51°16.724 2°53.295 322.6 13.4 315 10.5
2006-02-03 08:15:10 51°16.739 2°53.27 322.6 13.4 315 10.5
2006-02-03 08:15:15 51°16.752 2°53.249 322.3 13.4 314 10.4
2006-02-03 08:15:20 51°16.765 2°53.227 322.1 13.4 314 10.5
2006-02-03 08:15:25 51°16.778 2°53.206 321.5 13.5 314 10.3
2006-02-03 08:15:30 51°16.791 2°53.184 321.2 13.4 313 10.3
2006-02-03 08:15:35 51°16.803 2°53.162 321 13.4 313 10.2
2006-02-03 08:15:40 51°16.816 2°53.141 320.7 13.5 313 10
2006-02-03 08:15:45 51°16.829 2°53.119 320.7 13.5 313 9.5
2006-02-03 08:15:50 51°16.841 2°53.098 320.6 13.3 313 8.9
2006-02-03 08:15:55 51°16.854 2°53.076 320.4 13.2 313 8.3
2006-02-03 08:16:00 51°16.866 2°53.055 320.7 13.1 313 7.9
2006-02-03 08:16:05 51°16.877 2°53.038 320.8 12.9 314 7.7
2006-02-03 08:16:10 51°16.889 2°53.017 321.3 12.8 314 5.7
2006-02-03 08:16:15 51°16.902 2°52.997 322.2 12.8 316 5.6
2006-02-03 08:16:21 51°16.918 2°52.975 323.5 12.8 317 7.6
2006-02-03 08:16:25 51°16.928 2°52.96 324.6 12.9 318 7.7
2006-02-03 08:16:31 51°16.945 2°52.937 325.9 13 320 7.8
2006-02-03 08:16:36 51°16.959 2°52.919 327.2 13 320 7.9
2006-02-03 08:16:41 51°16.973 2°52.901 328 13.1 321 8.1
2006-02-03 08:16:46 51°16.987 2°52.882 328.4 13.1 321 8.3
2006-02-03 08:16:51 51°17.001 2°52.863 328.4 13.3 321 8.5
2006-02-03 08:16:56 51°17.016 2°52.844 328.2 13.4 320 8.6
2006-02-03 08:17:01 51°17.03 2°52.824 327.5 13.5 319 8.8
2006-02-03 08:17:05 51°17.041 2°52.808 326.6 13.5 318 8.9
2006-02-03 08:17:11 51°17.057 2°52.783 325.1 13.6 316 9
2006-02-03 08:17:15 51°17.068 2°52.766 323.6 13.6 316 9.1
2006-02-03 08:17:21 51°17.084 2°52.74 322.4 13.6 315 9.3
2006-02-03 08:17:25 51°17.094 2°52.723 321.4 13.6 314 9.2
2006-02-03 08:17:31 51°17.11 2°52.697 320.8 13.6 314 9
2006-02-03 08:17:36 51°17.123 2°52.676 320.7 13.6 314 8.7
2006-02-03 08:17:41 51°17.136 2°52.654 320.8 13.5 314 8.7
2006-02-03 08:17:46 51°17.149 2°52.633 321.2 13.4 315 8.6
2006-02-03 08:17:51 51°17.163 2°52.613 321.6 13.4 315 8.7
2006-02-03 08:17:56 51°17.176 2°52.593 322.2 13.4 317 8.9
2006-02-03 08:18:01 51°17.19 2°52.573 323.6 13.4 318 8.9
2006-02-03 08:18:05 51°17.201 2°52.557 324.4 13.5 318 8.9
2006-02-03 08:18:11 51°17.218 2°52.533 325.1 13.5 318 8.9
2006-02-03 08:18:16 51°17.232 2°52.513 325.4 13.5 319 9.1
2006-02-03 08:18:21 51°17.246 2°52.493 325.6 13.5 318 9.1
2006-02-03 08:18:25 51°17.257 2°52.477 325.4 13.5 318 9.1
2006-02-03 08:18:31 51°17.274 2°52.452 324.8 13.5 318 9.3
2006-02-03 08:18:35 51°17.284 2°52.436 323.7 13.6 316 9.3
2006-02-03 08:18:41 51°17.3 2°52.41 322.9 13.6 316 9.4
2006-02-03 08:18:45 51°17.311 2°52.393 322 13.5 315 9.4
2006-02-03 08:18:51 51°17.327 2°52.367 321.4 13.5 315 9.4
2006-02-03 08:18:56 51°17.34 2°52.346 321 13.6 314 9.5
2006-02-03 08:19:01 51°17.353 2°52.325 320.8 13.6 314 9.5
2006-02-03 08:19:05 51°17.364 2°52.308 320.8 13.6 315 9.5
2006-02-03 08:19:11 51°17.38 2°52.283 321.6 13.6 316 9.5
2006-02-03 08:19:16 51°17.394 2°52.263 322.5 13.6 317 9.6
2006-02-03 08:19:21 51°17.408 2°52.244 324.4 13.5 319 9.6
2006-02-03 08:19:25 51°17.42 2°52.229 326.4 13.5 321 9.6
2006-02-03 08:19:31 51°17.437 2°52.206 327.5 13.5 321 9.6
2006-02-03 08:19:35 51°17.449 2°52.192 328.7 13.5 322 9.6
2006-02-03 08:19:41 51°17.467 2°52.17 329.5 13.5 323 9.6
2006-02-03 08:19:46 51°17.482 2°52.152 330 13.4 322 9.6
2006-02-03 08:19:51 51°17.497 2°52.134 330.1 13.4 323 9.7
2006-02-03 08:19:56 51°17.512 2°52.116 330.2 13.4 323 9.6
2006-02-03 08:20:01 51°17.526 2°52.098 330.2 13.4 323 9.6
2006-02-03 08:20:05 51°17.538 2°52.084 330.3 13.4 323 9.6
2006-02-03 08:20:11 51°17.556 2°52.063 330.6 13.4 324 9.7
2006-02-03 08:20:16 51°17.571 2°52.045 331.1 13.4 324 9.6
2006-02-03 08:20:21 51°17.586 2°52.028 331.3 13.4 324 9.6
2006-02-03 08:20:26 51°17.601 2°52.01 331.5 13.4 324 9.6
2006-02-03 08:20:31 51°17.616 2°51.993 331.5 13.4 324 9.6
2006-02-03 08:20:36 51°17.631 2°51.975 331.2 13.4 323 9.6
2006-02-03 08:20:41 51°17.646 2°51.957 330.9 13.4 323 9.6
2006-02-03 08:20:45 51°17.658 2°51.943 330.9 13.4 323 9.5
2006-02-03 08:20:51 51°17.676 2°51.921 330.9 13.4 323 9.5
2006-02-03 08:20:56 51°17.691 2°51.903 330.6 13.4 323 9.4
2006-02-03 08:21:01 51°17.705 2°51.885 330.5 13.4 323 9.3
2006-02-03 08:21:05 51°17.717 2°51.871 330.4 13.4 323 9.4
2006-02-03 08:21:11 51°17.735 2°51.85 330.3 13.4 323 9.4
2006-02-03 08:21:16 51°17.75 2°51.831 330.2 13.4 322 9.3
2006-02-03 08:21:21 51°17.765 2°51.813 330.1 13.4 322 9.3
2006-02-03 08:21:26 51°17.779 2°51.795 330 13.4 322 9.3
2006-02-03 08:21:31 51°17.794 2°51.777 329.9 13.4 323 9.3
2006-02-03 08:21:36 51°17.809 2°51.76 330.2 13.5 323 9.3
2006-02-03 08:21:41 51°17.824 2°51.742 330.8 13.4 324 9.3
2006-02-03 08:21:46 51°17.839 2°51.725 331.2 13.5 324 9.3
2006-02-03 08:21:51 51°17.855 2°51.707 331.7 13.5 324 9.3
2006-02-03 08:21:56 51°17.87 2°51.69 332.1 13.5 325 9.4
2006-02-03 08:22:01 51°17.885 2°51.673 332.3 13.5 324 9.4
2006-02-03 08:22:05 51°17.897 2°51.659 332.3 13.5 324 9.4
2006-02-03 08:22:11 51°17.915 2°51.637 331.9 13.5 323 9.5
2006-02-03 08:22:16 51°17.93 2°51.619 331.2 13.5 323 9.6
2006-02-03 08:22:21 51°17.945 2°51.601 330.9 13.5 322 9.7
2006-02-03 08:22:26 51°17.96 2°51.582 330 13.6 322 9.7
2006-02-03 08:22:31 51°17.974 2°51.563 329.5 13.6 321 9.7
2006-02-03 08:22:36 51°17.989 2°51.545 329 13.6 321 9.8
2006-02-03 08:22:41 51°18.004 2°51.526 328.9 13.6 321 9.9
2006-02-03 08:22:45 51°18.016 2°51.511 328.7 13.6 322 10
2006-02-03 08:22:51 51°18.034 2°51.489 329.2 13.6 322 10.1
2006-02-03 08:22:56 51°18.049 2°51.471 330.1 13.6 323 10.2
2006-02-03 08:23:01 51°18.064 2°51.453 330.8 13.6 324 10.3
2006-02-03 08:23:05 51°18.076 2°51.439 331.2 13.6 324 10.4
2006-02-03 08:23:11 51°18.095 2°51.417 331.4 13.6 323 10.6
2006-02-03 08:23:16 51°18.11 2°51.4 331.3 13.6 323 10.6
2006-02-03 08:23:21 51°18.124 2°51.381 330.9 13.6 323 10.8
2006-02-03 08:23:26 51°18.139 2°51.362 330.5 13.6 322 10.8
2006-02-03 08:23:31 51°18.154 2°51.344 329.9 13.6 322 11
2006-02-03 08:23:36 51°18.168 2°51.326 329.6 13 321 11.1
2006-02-03 08:23:41 51°18.18 2°51.309 329.3 12.2 321 11.2
2006-02-03 08:23:45 51°18.191 2°51.297 329 11.7 321 11.4
2006-02-03 08:23:51 51°18.205 2°51.278 328.8 11 321 11.5
2006-02-03 08:23:56 51°18.216 2°51.264 328.8 10.5 321 11.6
2006-02-03 08:24:01 51°18.227 2°51.25 328.9 10.2 321 11.8
2006-02-03 08:24:05 51°18.235 2°51.239 329.1 9.8 321 11.8
2006-02-03 08:24:11 51°18.247 2°51.224 329.5 9.5 321 11.9
2006-02-03 08:24:15 51°18.255 2°51.213 330 9.3 322 12
2006-02-03 08:24:21 51°18.267 2°51.199 330.5 9 322 12.1
2006-02-03 08:24:26 51°18.277 2°51.188 331.1 8.8 323 12.1
2006-02-03 08:24:31 51°18.286 2°51.177 331.9 8.5 323 12.1
2006-02-03 08:24:36 51°18.295 2°51.166 332.5 8.1 324 12.2
2006-02-03 08:24:41 51°18.304 2°51.156 333.1 7.7 324 12.3
2006-02-03 08:24:46 51°18.312 2°51.147 333.8 7.4 324 12.3
2006-02-03 08:24:51 51°18.32 2°51.139 334.2 6.9 325 12.4
2006-02-03 08:24:56 51°18.327 2°51.131 335 6.6 325 12.5
2006-02-03 08:25:01 51°18.334 2°51.123 335.7 6.3 325 12.5
2006-02-03 08:25:06 51°18.341 2°51.116 336.7 6 326 12.5
2006-02-03 08:25:11 51°18.348 2°51.109 338 5.7 327 12.6
2006-02-03 08:25:16 51°18.354 2°51.103 339 5.4 328 12.6
2006-02-03 08:25:21 51°18.36 2°51.097 340.8 5.2 329 12.6
2006-02-03 08:25:26 51°18.366 2°51.092 342 4.9 331 12.6
2006-02-03 08:25:31 51°18.371 2°51.088 343.7 4.6 330 12.7
2006-02-03 08:25:36 51°18.376 2°51.084 345.8 4.2 335 12.7
2006-02-03 08:25:41 51°18.381 2°51.081 349.8 4 336 12.8
2006-02-03 08:25:45 51°18.385 2°51.078 352.3 3.6 336 12.8
2006-02-03 08:25:51 51°18.39 2°51.075 354.1 3.6 336 12.8
2006-02-03 08:25:56 51°18.393 2°51.074 358.1 2.8 340 12.8
2006-02-03 08:26:01 51°18.396 2°51.072 1.4 2.5 342 12.8
2006-02-03 08:26:06 51°18.398 2°51.071 5.6 1.9 338 12.8
2006-02-03 08:26:11 51°18.4 2°51.07 10.2 1.2 332 12.8
2006-02-03 08:26:16 51°18.4 2°51.068 15.9 1 298 12.8
2006-02-03 08:26:21 51°18.4 2°51.066 20.7 0.9 279 12.8
2006-02-03 08:26:26 51°18.4 2°51.064 24.6 0.9 271 12.8
2006-02-03 08:26:31 51°18.4 2°51.062 27.5 0.8 270 12.8
2006-02-03 08:26:35 51°18.4 2°51.061 29.7 0.9 272 12.8
2006-02-03 08:26:41 51°18.4 2°51.059 31.5 0.8 270 12.8
2006-02-03 08:26:46 51°18.4 2°51.057 32.9 0.8 269 12.9
2006-02-03 08:26:51 51°18.4 2°51.055 34.2 0.7 266 12.9
2006-02-03 08:26:56 51°18.4 2°51.053 35.5 0.7 269 12.9
2006-02-03 08:27:01 51°18.4 2°51.052 36.4 0.8 267 12.9
2006-02-03 08:27:06 51°18.4 2°51.05 37.5 0.8 270 12.8
2006-02-03 08:27:11 51°18.4 2°51.048 38.6 0.7 265 12.9
2006-02-03 08:27:16 51°18.4 2°51.047 39.6 0.8 271 12.9
2006-02-03 08:27:21 51°18.4 2°51.045 40.4 0.7 264 12.9
2006-02-03 08:27:25 51°18.4 2°51.044 41.2 0.8 269 12.9
2006-02-03 08:27:31 51°18.399 2°51.042 42.1 0.7 264 12.8
2006-02-03 08:27:36 51°18.399 2°51.041 42.8 0.8 270 12.9
2006-02-03 08:27:41 51°18.399 2°51.039 43.9 0.6 264 5.6
2006-02-03 08:27:45 51°18.399 2°51.038 44.6 0.7 267 5.6
2006-02-03 08:27:51 51°18.399 2°51.036 45.5 0.6 261 4.9
2006-02-03 08:27:56 51°18.399 2°51.035 46.4 0.7 267 5.3
2006-02-03 08:28:01 51°18.399 2°51.033 47.3 0.7 267 -999
2006-02-03 08:28:05 51°18.399 2°51.032 47.9 0.7 266 4.8
2006-02-03 08:28:11 51°18.399 2°51.031 48.7 0.6 259 -999
2006-02-03 08:28:16 51°18.398 2°51.03 49.5 0.6 262 5
2006-02-03 08:28:21 51°18.398 2°51.028 50.1 0.6 262 4.9
2006-02-03 08:28:26 51°18.398 2°51.027 50.9 0.7 267 4.8
2006-02-03 08:28:31 51°18.398 2°51.025 51.6 0.6 260 -999
2006-02-03 08:28:35 51°18.398 2°51.024 52.3 0.7 268 -999
2006-02-03 08:28:41 51°18.398 2°51.023 53.3 0.6 258 -999
2006-02-03 08:28:46 51°18.398 2°51.021 53.8 0.6 265 5
2006-02-03 08:28:51 51°18.398 2°51.02 54.3 0.6 263 -999
2006-02-03 08:28:56 51°18.397 2°51.018 55.1 0.6 266 5.8
2006-02-03 08:29:01 51°18.397 2°51.017 55.7 0.7 267 -999
2006-02-03 08:29:06 51°18.397 2°51.016 56.5 0.6 268 -999
2006-02-03 08:29:11 51°18.397 2°51.014 57.1 0.7 266 12.9
2006-02-03 08:29:16 51°18.397 2°51.013 57.6 0.6 258 12.8
2006-02-03 08:29:21 51°18.397 2°51.011 58.2 0.6 264 12.8
2006-02-03 08:29:26 51°18.397 2°51.01 58.8 0.6 262 12.8
2006-02-03 08:29:31 51°18.397 2°51.009 59.5 0.7 266 12.8
2006-02-03 08:29:36 51°18.397 2°51.007 60 0.6 259 12.8
2006-02-03 08:29:41 51°18.397 2°51.006 60.7 0.7 266 12.9
2006-02-03 08:29:45 51°18.397 2°51.005 61.3 0.6 256 12.8
2006-02-03 08:29:51 51°18.397 2°51.003 61.9 0.6 266 12.9
2006-02-03 08:29:56 51°18.397 2°51.002 62.5 0.6 257 12.9
2006-02-03 08:30:01 51°18.397 2°51 63.1 0.7 268 12.9
2006-02-03 08:30:05 51°18.396 2°51 63.8 0.6 254 12.9
2006-02-03 08:30:11 51°18.396 2°50.998 64.4 0.6 268 12.9
2006-02-03 08:30:16 51°18.396 2°50.997 65 0.6 253 12.9
2006-02-03 08:30:21 51°18.396 2°50.995 65.6 0.6 263 12.9
2006-02-03 08:30:26 51°18.396 2°50.994 66.1 0.6 259 12.8
2006-02-03 08:30:31 51°18.396 2°50.993 66.7 0.6 268 12.9
2006-02-03 08:30:36 51°18.396 2°50.991 67.3 0.6 254 12.9
2006-02-03 08:30:41 51°18.396 2°50.99 67.9 0.6 263 12.8
2006-02-03 08:30:45 51°18.396 2°50.989 68.5 0.6 250 12.8
2006-02-03 08:30:51 51°18.396 2°50.987 68.9 0.6 250 12.9
2006-02-03 08:30:56 51°18.395 2°50.986 69.3 0.6 259 12.8
2006-02-03 08:31:01 51°18.395 2°50.985 69.8 0.6 264 12.8
2006-02-03 08:31:06 51°18.395 2°50.984 70.4 0.6 262 12.8
2006-02-03 08:31:11 51°18.395 2°50.982 70.8 0.6 264 12.9
2006-02-03 08:31:16 51°18.395 2°50.981 71.1 0.6 252 12.9
2006-02-03 08:31:21 51°18.394 2°50.98 71.7 0.6 251 12.9
2006-02-03 08:31:25 51°18.394 2°50.979 72 0.6 261 12.9
2006-02-03 08:31:31 51°18.394 2°50.977 72.4 0.6 255 12.9
2006-02-03 08:31:36 51°18.394 2°50.976 72.7 0.6 265 12.8
2006-02-03 08:31:41 51°18.394 2°50.974 73.2 0.6 265 12.9
2006-02-03 08:31:46 51°18.394 2°50.973 73.4 0.6 262 12.8
2006-02-03 08:31:51 51°18.393 2°50.972 73.9 0.6 257 12.8
2006-02-03 08:31:56 51°18.393 2°50.971 74.2 0.6 264 12.8
2006-02-03 08:32:01 51°18.393 2°50.97 74.6 0.6 261 12.8
2006-02-03 08:32:05 51°18.393 2°50.969 74.9 0.5 263 12.8
2006-02-03 08:32:11 51°18.393 2°50.967 75.3 0.6 263 12.8
2006-02-03 08:32:16 51°18.393 2°50.966 75.7 0.6 257 12.9
2006-02-03 08:32:21 51°18.393 2°50.965 76 0.6 265 12.9
2006-02-03 08:32:26 51°18.393 2°50.964 76.2 0.6 247 12.9
2006-02-03 08:32:31 51°18.392 2°50.962 76.7 0.6 271 12.8
2006-02-03 08:32:36 51°18.392 2°50.961 76.9 0.5 262 12.8
2006-02-03 08:32:41 51°18.392 2°50.96 77.3 0.5 258 12.9
2006-02-03 08:32:45 51°18.392 2°50.959 77.8 0.5 254 12.9
2006-02-03 08:32:51 51°18.392 2°50.958 78.1 0.5 254 12.9
2006-02-03 08:32:56 51°18.392 2°50.956 78.5 0.5 247 12.9
2006-02-03 08:33:01 51°18.392 2°50.955 78.9 0.5 268 12.8
2006-02-03 08:33:06 51°18.391 2°50.954 79.1 0.6 249 12.8
2006-02-03 08:33:11 51°18.391 2°50.953 79.5 0.5 262 12.8
2006-02-03 08:33:16 51°18.391 2°50.953 79.8 0.2 267 12.8
2006-02-03 08:33:21 51°18.392 2°50.954 80.2 0.2 69 12.9
2006-02-03 08:33:26 51°18.392 2°50.956 79.3 1 76 12.8
2006-02-03 08:33:31 51°18.393 2°50.96 77.6 1.5 66 12.8
2006-02-03 08:33:36 51°18.394 2°50.964 76.4 2 71 12.8
2006-02-03 08:33:41 51°18.395 2°50.97 75.1 2.5 66 12.8
2006-02-03 08:33:45 51°18.396 2°50.974 73.4 2.8 68 12.8
2006-02-03 08:33:51 51°18.399 2°50.983 71.8 3.5 64 12.8
2006-02-03 08:33:56 51°18.402 2°50.992 70.2 4.1 64 12.8
2006-02-03 08:34:01 51°18.405 2°51.002 68.9 5.2 62 12.8
2006-02-03 08:34:06 51°18.41 2°51.014 67.8 5.7 63 12.8
2006-02-03 08:34:11 51°18.414 2°51.028 67 7 61 12.8
2006-02-03 08:34:16 51°18.42 2°51.044 66.5 7.7 61 12.7
2006-02-03 08:34:21 51°18.426 2°51.06 66.1 8.5 60 12.7
2006-02-03 08:34:26 51°18.431 2°51.078 66.2 8.6 60 12.7
2006-02-03 08:34:31 51°18.438 2°51.098 67.4 9.6 62 12.7
2006-02-03 08:34:36 51°18.444 2°51.118 67.7 10.3 64 12.7
2006-02-03 08:34:41 51°18.45 2°51.14 69 10.5 65 12.6
2006-02-03 08:34:46 51°18.456 2°51.163 70.9 11.2 67 12.6
2006-02-03 08:34:51 51°18.462 2°51.187 71.9 11.5 68 12.6
2006-02-03 08:34:56 51°18.468 2°51.212 72.9 11.6 69 12.6
2006-02-03 08:35:01 51°18.473 2°51.237 73.8 12 71 12.6
2006-02-03 08:35:05 51°18.477 2°51.257 75.4 12.1 72 12.5
2006-02-03 08:35:11 51°18.483 2°51.288 76.5 12.1 72 12.5
2006-02-03 08:35:16 51°18.488 2°51.314 77.5 12.3 73 12.5
2006-02-03 08:35:21 51°18.493 2°51.34 77.9 12.3 73 12.5
2006-02-03 08:35:26 51°18.498 2°51.366 77.9 12.3 73 12.4
2006-02-03 08:35:31 51°18.503 2°51.393 77.9 12.3 74 12.4
2006-02-03 08:35:36 51°18.508 2°51.419 78.3 12.4 74 12.3
2006-02-03 08:35:41 51°18.513 2°51.445 78.6 12.4 74 12.3
2006-02-03 08:35:46 51°18.518 2°51.471 78.3 12.4 72 12.3
2006-02-03 08:35:51 51°18.524 2°51.497 77.3 12.4 72 12.2
2006-02-03 08:35:56 51°18.53 2°51.523 76.3 12.4 70 12.2
2006-02-03 08:36:01 51°18.535 2°51.549 75.1 12.4 70 12.1
2006-02-03 08:36:06 51°18.542 2°51.575 74.6 12.5 68 12.1
2006-02-03 08:36:11 51°18.548 2°51.6 73.7 12.4 68 12.1
2006-02-03 08:36:16 51°18.555 2°51.626 73.3 12.4 68 12.1
2006-02-03 08:36:21 51°18.562 2°51.651 72.9 12.4 68 12
2006-02-03 08:36:26 51°18.568 2°51.676 72.8 12.4 68 12
2006-02-03 08:36:31 51°18.575 2°51.702 73.2 12.4 68 11.9
2006-02-03 08:36:36 51°18.581 2°51.728 73.4 12.4 68 11.9
2006-02-03 08:36:41 51°18.587 2°51.753 73.9 12.5 68 11.9
2006-02-03 08:36:45 51°18.592 2°51.774 73.9 12.4 69 11.9
2006-02-03 08:36:51 51°18.6 2°51.804 73.9 12.3 69 11.8
2006-02-03 08:36:56 51°18.606 2°51.83 74 12.3 69 11.7
2006-02-03 08:37:01 51°18.612 2°51.856 74 12.4 69 11.7
2006-02-03 08:37:05 51°18.617 2°51.876 74 12.4 69 11.7
2006-02-03 08:37:11 51°18.625 2°51.906 73.9 12.3 69 11.7
2006-02-03 08:37:16 51°18.631 2°51.932 74 12.3 68 11.7
2006-02-03 08:37:21 51°18.638 2°51.957 73.9 12.4 68 11.6
2006-02-03 08:37:26 51°18.644 2°51.983 73.6 12.4 68 11.6
2006-02-03 08:37:31 51°18.65 2°52.008 73.2 12.3 68 11.6
2006-02-03 08:37:36 51°18.657 2°52.033 73.4 12.3 68 11.6
2006-02-03 08:37:41 51°18.663 2°52.059 73.7 12.4 68 11.5
2006-02-03 08:37:46 51°18.669 2°52.084 73.9 12.3 69 11.5
2006-02-03 08:37:51 51°18.675 2°52.11 74 12.3 68 11.4
2006-02-03 08:37:56 51°18.682 2°52.135 73.8 12.3 68 11.4
2006-02-03 08:38:01 51°18.688 2°52.16 73.9 12.3 68 11.3
2006-02-03 08:38:05 51°18.693 2°52.181 73.9 12.3 69 11.3
2006-02-03 08:38:11 51°18.701 2°52.211 74 12.2 68 11.3
2006-02-03 08:38:16 51°18.707 2°52.236 73.7 12.2 68 11.3
2006-02-03 08:38:21 51°18.713 2°52.261 73.6 12.2 68 11.2
2006-02-03 08:38:26 51°18.72 2°52.286 73.7 12.3 68 11.2
2006-02-03 08:38:31 51°18.726 2°52.312 73.8 12.3 69 11.2
2006-02-03 08:38:36 51°18.732 2°52.337 74.2 12.3 69 11.2
2006-02-03 08:38:41 51°18.738 2°52.363 74.2 12.3 69 11.1
2006-02-03 08:38:46 51°18.744 2°52.388 74.3 12.3 69 11.1
2006-02-03 08:38:51 51°18.75 2°52.413 74.4 12.3 69 11.1
2006-02-03 08:38:56 51°18.756 2°52.439 74.5 12.3 69 11
2006-02-03 08:39:01 51°18.763 2°52.464 74.3 12.3 68 11
2006-02-03 08:39:05 51°18.768 2°52.484 74.1 12.3 68 11
2006-02-03 08:39:11 51°18.776 2°52.514 73.9 12.3 68 11
2006-02-03 08:39:16 51°18.783 2°52.54 73.5 12.3 67 10.9
2006-02-03 08:39:21 51°18.789 2°52.565 73.3 12.3 68 11
2006-02-03 08:39:26 51°18.795 2°52.59 73.5 12.3 68 11
2006-02-03 08:39:31 51°18.801 2°52.616 73.9 12.3 69 10.9
2006-02-03 08:39:36 51°18.807 2°52.641 74.3 12.2 69 10.9
2006-02-03 08:39:41 51°18.813 2°52.666 74.7 12.2 69 10.9
2006-02-03 08:39:45 51°18.818 2°52.686 74.8 12.2 69 10.9
2006-02-03 08:39:51 51°18.825 2°52.717 74.7 12.2 69 10.9
2006-02-03 08:39:56 51°18.831 2°52.742 74.7 12.2 69 10.9
2006-02-03 08:40:01 51°18.837 2°52.768 74.6 12.2 69 10.8
2006-02-03 08:40:05 51°18.842 2°52.788 74.6 12.2 69 10.8
2006-02-03 08:40:11 51°18.849 2°52.818 74.7 12.2 69 10.8
2006-02-03 08:40:16 51°18.855 2°52.843 74.3 12.2 68 10.8
2006-02-03 08:40:21 51°18.862 2°52.868 73.9 12.2 68 10.8
2006-02-03 08:40:25 51°18.867 2°52.888 73.6 12.2 68 10.8
2006-02-03 08:40:31 51°18.875 2°52.918 73.4 12.2 68 10.8
2006-02-03 08:40:36 51°18.881 2°52.943 73.4 12.2 68 10.8
2006-02-03 08:40:41 51°18.887 2°52.969 73.7 12.2 69 10.7
2006-02-03 08:40:45 51°18.891 2°52.989 74.4 12.2 70 10.8
2006-02-03 08:40:51 51°18.899 2°53.019 74.8 12.2 69 10.7
2006-02-03 08:40:56 51°18.905 2°53.045 75 12.2 70 10.7
2006-02-03 08:41:01 51°18.911 2°53.07 75.1 12.2 69 10.8
2006-02-03 08:41:06 51°18.917 2°53.095 74.8 12.2 69 10.7
2006-02-03 08:41:11 51°18.924 2°53.12 74.6 12.2 68 10.7
2006-02-03 08:41:16 51°18.93 2°53.145 73.9 12.2 68 10.7
2006-02-03 08:41:21 51°18.937 2°53.17 73.3 12.2 68 10.7
2006-02-03 08:41:25 51°18.942 2°53.19 73.3 12.2 68 10.7
2006-02-03 08:41:31 51°18.949 2°53.22 73.6 12.2 68 10.7
2006-02-03 08:41:36 51°18.956 2°53.246 74 12.1 69 10.7
2006-02-03 08:41:41 51°18.962 2°53.271 74.4 12.2 69 10.7
2006-02-03 08:41:46 51°18.968 2°53.296 74.6 12.2 69 10.7
2006-02-03 08:41:51 51°18.974 2°53.321 74.7 12.2 69 10.8
2006-02-03 08:41:56 51°18.979 2°53.347 75 12.2 70 10.7
2006-02-03 08:42:01 51°18.985 2°53.372 75.1 12.2 69 10.8
2006-02-03 08:42:05 51°18.99 2°53.392 75.1 12.2 70 10.7
2006-02-03 08:42:11 51°18.998 2°53.423 75.1 12.2 69 10.7
2006-02-03 08:42:16 51°19.004 2°53.448 74.7 12.2 69 10.7
2006-02-03 08:42:21 51°19.01 2°53.473 74.7 12.2 69 10.7
2006-02-03 08:42:25 51°19.015 2°53.493 74.6 12.2 70 10.7
2006-02-03 08:42:31 51°19.022 2°53.524 74.7 12.2 69 10.7
2006-02-03 08:42:36 51°19.028 2°53.549 74.2 12.2 69 10.7
2006-02-03 08:42:41 51°19.034 2°53.574 74.2 12.2 69 10.8
2006-02-03 08:42:46 51°19.04 2°53.599 74.3 12.3 69 10.7
2006-02-03 08:42:51 51°19.046 2°53.625 74.2 12.2 69 10.8
2006-02-03 08:42:56 51°19.052 2°53.65 74.5 12.2 69 10.8
2006-02-03 08:43:01 51°19.059 2°53.675 74.6 12.2 69 10.8
2006-02-03 08:43:06 51°19.065 2°53.7 74.6 12.3 69 10.8
2006-02-03 08:43:11 51°19.071 2°53.726 74 12.2 68 10.7
2006-02-03 08:43:16 51°19.077 2°53.751 73.9 12.2 69 10.8
2006-02-03 08:43:21 51°19.083 2°53.776 74 12.2 69 10.8
2006-02-03 08:43:25 51°19.088 2°53.796 74.3 12.2 69 10.7
2006-02-03 08:43:31 51°19.095 2°53.826 74.6 12.2 69 10.7
2006-02-03 08:43:36 51°19.101 2°53.852 74.5 12.2 70 10.8
2006-02-03 08:43:41 51°19.107 2°53.877 74.7 12.2 69 10.8
2006-02-03 08:43:45 51°19.111 2°53.897 74.7 12.2 70 10.7
2006-02-03 08:43:51 51°19.118 2°53.928 74.9 12.2 70 10.7
2006-02-03 08:43:56 51°19.124 2°53.953 75.1 12.1 71 10.7
2006-02-03 08:44:01 51°19.129 2°53.979 75.7 12.2 70 10.7
2006-02-03 08:44:06 51°19.135 2°54.004 75.4 12.2 70 10.7
2006-02-03 08:44:11 51°19.141 2°54.029 74.9 12.1 70 10.7
2006-02-03 08:44:16 51°19.147 2°54.054 74.8 12.1 70 10.7
2006-02-03 08:44:21 51°19.153 2°54.079 74.3 12.1 69 10.9
2006-02-03 08:44:26 51°19.159 2°54.104 73.8 12.1 69 10.7
2006-02-03 08:44:31 51°19.165 2°54.129 73.7 12.1 69 10.7
2006-02-03 08:44:36 51°19.171 2°54.154 73.7 12.1 69 10.8
2006-02-03 08:44:41 51°19.177 2°54.179 74.2 12.2 70 10.7
2006-02-03 08:44:46 51°19.183 2°54.204 74.7 12.1 70 10.7
2006-02-03 08:44:51 51°19.188 2°54.23 75 12.1 70 10.7
2006-02-03 08:44:56 51°19.194 2°54.255 75.5 12.1 70 10.7
2006-02-03 08:45:01 51°19.2 2°54.28 75.5 12.1 70 10.7
2006-02-03 08:45:06 51°19.205 2°54.305 75.1 12.1 70 10.6
2006-02-03 08:45:11 51°19.211 2°54.33 74.8 12.2 69 10.6
2006-02-03 08:45:16 51°19.218 2°54.355 74.1 12.1 68 10.7
2006-02-03 08:45:21 51°19.224 2°54.38 73.3 12.1 68 10.7
2006-02-03 08:45:25 51°19.229 2°54.4 73.1 12.1 68 10.7
2006-02-03 08:45:31 51°19.237 2°54.43 73 12.2 67 10.7
2006-02-03 08:45:36 51°19.243 2°54.455 73 12.2 69 10.6
2006-02-03 08:45:41 51°19.249 2°54.48 73.9 12.1 70 10.7
2006-02-03 08:45:46 51°19.254 2°54.506 74.5 12.2 69 10.6
2006-02-03 08:45:51 51°19.26 2°54.531 74.7 12.2 70 10.6
2006-02-03 08:45:56 51°19.266 2°54.556 75 12.2 70 10.7
2006-02-03 08:46:01 51°19.272 2°54.582 75 12.2 70 10.7
2006-02-03 08:46:05 51°19.277 2°54.602 75 12.2 70 10.7
2006-02-03 08:46:11 51°19.284 2°54.632 75 12.2 69 10.7
2006-02-03 08:46:16 51°19.29 2°54.657 74.9 12.2 69 10.7
2006-02-03 08:46:21 51°19.296 2°54.683 74.7 12.2 70 10.7
2006-02-03 08:46:25 51°19.301 2°54.703 74.5 12.2 69 10.7
2006-02-03 08:46:31 51°19.308 2°54.733 73.9 12.2 69 10.7
2006-02-03 08:46:36 51°19.314 2°54.758 73.6 12.2 68 10.7
2006-02-03 08:46:41 51°19.321 2°54.783 73.3 12.2 69 10.7
2006-02-03 08:46:46 51°19.327 2°54.809 73.4 12.2 68 10.7
2006-02-03 08:46:51 51°19.333 2°54.834 73.3 12.3 69 10.7
2006-02-03 08:46:56 51°19.34 2°54.859 73.7 12.2 68 10.7
2006-02-03 08:47:01 51°19.346 2°54.884 73.8 12.2 69 10.7
2006-02-03 08:47:05 51°19.35 2°54.904 74 12.2 69 10.7
2006-02-03 08:47:11 51°19.358 2°54.935 74.3 12.3 69 10.8
2006-02-03 08:47:16 51°19.364 2°54.96 74.2 12.2 69 10.8
2006-02-03 08:47:21 51°19.37 2°54.986 74.4 12.2 69 10.8
2006-02-03 08:47:26 51°19.376 2°55.011 74.6 12.3 69 10.7
2006-02-03 08:47:31 51°19.383 2°55.036 74.6 12.3 68 10.7
2006-02-03 08:47:36 51°19.389 2°55.061 74.1 12.2 68 10.8
2006-02-03 08:47:41 51°19.396 2°55.086 73.3 12.3 67 10.8
2006-02-03 08:47:46 51°19.402 2°55.111 73 12.3 67 10.6
2006-02-03 08:47:51 51°19.409 2°55.137 73 12.3 68 10.6
2006-02-03 08:47:56 51°19.416 2°55.162 72.8 12.3 67 10.7
2006-02-03 08:48:01 51°19.422 2°55.187 72.7 12.2 68 10.8
2006-02-03 08:48:05 51°19.426 2°55.207 73.6 12.3 69 10.8
2006-02-03 08:48:11 51°19.434 2°55.238 74 12.3 69 10.7
2006-02-03 08:48:16 51°19.44 2°55.263 74.6 12.2 70 10.7
2006-02-03 08:48:21 51°19.445 2°55.289 75.4 12.2 71 10.8
2006-02-03 08:48:26 51°19.45 2°55.314 76 12.2 71 10.7
2006-02-03 08:48:31 51°19.456 2°55.34 76.6 12.2 72 10.7